Time;durP1;ratioP1;P1;durP2;ratioP2;P2;SDS_P1;SDS_P2;PMS_P1;PMS_P2;Temp;Humidity;BMP_temperature;BMP_pressure;BME280_temperature;BME280_humidity;BME280_pressure;Samples;Min_cycle;Max_cycle;Signal;HPM_P1;HPM_P2
2022/01/03 00:00:37;;;;;;;2.30;0.30;;;;;;;5.60;61.25;100455.38;4999965;28;20074;-80
2022/01/03 00:03:06;;;;;;;4.35;0.20;;;;;;;5.65;60.86;100459.53;4989961;28;20053;-79
2022/01/03 00:05:32;;;;;;;0.65;0.10;;;;;;;5.71;60.30;100475.84;4990472;28;20041;-78
2022/01/03 00:07:58;;;;;;;0.82;0.20;;;;;;;5.31;62.11;100474.25;4962422;28;20100;-77
2022/01/03 00:10:24;;;;;;;1.30;0.10;;;;;;;5.09;62.05;100479.94;4966679;28;22833;-78
2022/01/03 00:12:49;;;;;;;2.25;0.30;;;;;;;5.72;60.59;100488.75;4979546;28;20030;-78
2022/01/03 00:15:17;;;;;;;2.47;0.30;;;;;;;6.01;59.39;100492.31;4965001;28;20149;-78
2022/01/03 00:17:43;;;;;;;4.68;0.20;;;;;;;5.50;60.49;100503.97;4994172;28;20044;-78
2022/01/03 00:20:11;;;;;;;4.97;0.20;;;;;;;5.59;60.17;100500.31;4964050;28;20077;-79
2022/01/03 00:22:41;;;;;;;6.53;0.43;;;;;;;5.60;60.41;100495.09;4957225;28;20067;-79
2022/01/03 00:25:15;;;;;;;3.30;0.47;;;;;;;5.83;59.39;100498.84;4982207;28;20049;-79
2022/01/03 00:27:57;;;;;;;5.28;0.55;;;;;;;5.76;59.86;100507.69;4981814;28;20060;-80
2022/01/03 00:30:24;;;;;;;7.40;0.98;;;;;;;5.40;60.00;100503.38;4981926;28;20021;-78
2022/01/03 00:32:51;;;;;;;11.10;1.20;;;;;;;5.11;61.08;100516.19;4988389;28;20441;-79
2022/01/03 00:35:19;;;;;;;6.95;0.68;;;;;;;5.38;59.63;100515.50;4992745;28;20030;-79
2022/01/03 00:37:46;;;;;;;9.57;1.30;;;;;;;5.35;59.64;100520.78;4997033;28;20045;-77
2022/01/03 00:40:14;;;;;;;2.22;0.30;;;;;;;5.50;58.91;100522.13;4986994;28;20022;-78
2022/01/03 00:42:40;;;;;;;11.35;0.40;;;;;;;5.39;59.48;100526.72;4970002;28;20041;-79
2022/01/03 00:45:06;;;;;;;5.95;0.60;;;;;;;4.76;59.44;100523.78;4978406;28;20053;-80
2022/01/03 00:47:33;;;;;;;4.32;0.20;;;;;;;5.13;59.02;100542.91;4988351;28;20046;-80
2022/01/03 00:50:04;;;;;;;6.55;0.40;;;;;;;5.72;57.25;100530.22;4997985;28;20030;-80
2022/01/03 00:52:29;;;;;;;3.03;0.22;;;;;;;5.06;59.05;100529.22;4974660;28;20105;-81
2022/01/03 00:54:55;;;;;;;4.72;0.10;;;;;;;5.61;57.68;100540.03;4973305;28;20232;-80
2022/01/03 00:57:31;;;;;;;5.00;0.20;;;;;;;5.41;58.23;100535.31;4991000;28;20058;-80
2022/01/03 01:00:05;;;;;;;7.47;0.20;;;;;;;5.68;57.86;100536.38;4999002;28;20532;-80
2022/01/03 01:02:50;;;;;;;3.42;0.55;;;;;;;5.28;59.04;100533.91;4969000;28;20046;-80
2022/01/03 01:05:20;;;;;;;7.43;0.75;;;;;;;5.40;58.76;100525.84;4986179;28;20084;-80
2022/01/03 01:07:47;;;;;;;3.63;0.10;;;;;;;5.25;59.40;100542.59;4984081;28;20054;-81
2022/01/03 01:10:13;;;;;;;1.65;0.22;;;;;;;5.25;59.82;100547.78;4989917;28;20048;-80
2022/01/03 01:12:43;;;;;;;8.60;0.30;;;;;;;5.19;59.97;100546.19;4987737;28;20046;-80
2022/01/03 01:15:09;;;;;;;4.70;0.20;;;;;;;5.32;59.59;100536.38;4979780;28;20038;-80
2022/01/03 01:17:36;;;;;;;5.15;0.35;;;;;;;5.03;61.11;100539.63;4988651;28;20034;-80
2022/01/03 01:20:03;;;;;;;7.75;0.50;;;;;;;5.06;60.87;100547.38;4973324;28;20481;-80
2022/01/03 01:22:31;;;;;;;3.65;0.60;;;;;;;5.05;61.46;100548.22;4995533;28;20052;-81
2022/01/03 01:30:26;;;;;;;4.43;0.35;;;;;;;5.52;60.61;100567.00;5000679;28;20117;-81
2022/01/03 01:33:08;;;;;;;2.75;0.17;;;;;;;5.53;60.75;100560.97;4976415;28;20042;-82
2022/01/03 01:35:50;;;;;;;10.52;1.38;;;;;;;5.52;60.87;100559.25;5004566;28;20030;-82
2022/01/03 01:38:21;;;;;;;6.47;1.17;;;;;;;5.12;61.99;100564.50;4982306;28;20038;-83
2022/01/03 01:40:51;;;;;;;2.35;0.52;;;;;;;5.76;60.52;100572.50;5011544;28;20030;-81
2022/01/03 01:43:39;;;;;;;9.65;1.10;;;;;;;5.54;61.31;100575.59;4986638;28;20050;-81
2022/01/03 01:46:15;;;;;;;4.05;0.57;;;;;;;5.50;60.84;100570.53;4982612;28;20036;-81
2022/01/03 01:48:44;;;;;;;4.97;1.17;;;;;;;5.25;61.83;100571.94;4993137;28;20502;-81
2022/01/03 01:51:13;;;;;;;11.63;0.93;;;;;;;5.55;61.27;100564.38;5009392;28;20034;-81
2022/01/03 01:53:44;;;;;;;7.03;0.70;;;;;;;5.21;62.19;100572.94;4990004;28;20041;-81
2022/01/03 01:56:59;;;;;;;3.58;0.47;;;;;;;5.57;61.25;100572.09;4994382;28;20038;-81
2022/01/03 02:00:00;;;;;;;6.90;0.88;;;;;;;5.49;61.37;100584.41;4972876;28;20047;-81
2022/01/03 02:02:41;;;;;;;5.47;0.50;;;;;;;6.28;58.70;100563.41;4997739;28;20128;-82
2022/01/03 02:05:36;;;;;;;4.55;0.50;;;;;;;5.97;59.68;100566.78;5011949;28;20078;-82
2022/01/03 02:08:28;;;;;;;9.55;1.00;;;;;;;5.87;60.32;100573.09;4983272;28;20049;-81
2022/01/03 02:11:04;;;;;;;6.25;1.02;;;;;;;6.26;58.69;100568.63;4975720;28;20038;-81
2022/01/03 02:13:33;;;;;;;3.30;0.90;;;;;;;6.32;58.39;100574.56;4967822;28;20091;-82
2022/01/03 02:16:03;;;;;;;10.38;1.30;;;;;;;6.39;58.35;100571.75;4996036;28;20045;-81
2022/01/03 02:18:31;;;;;;;10.00;1.20;;;;;;;6.18;59.03;100575.75;4974639;28;20065;-80
2022/01/03 02:20:58;;;;;;;8.82;0.57;;;;;;;6.02;59.28;100564.09;4978900;28;20041;-81
2022/01/03 02:23:24;;;;;;;10.45;0.88;;;;;;;5.94;59.23;100581.56;4992372;28;20129;-81
2022/01/03 02:25:52;;;;;;;11.02;1.83;;;;;;;6.08;59.13;100580.34;4995763;28;20489;-80
2022/01/03 02:28:20;;;;;;;9.07;0.82;;;;;;;5.72;59.67;100566.53;4993795;28;20064;-80
2022/01/03 02:30:47;;;;;;;13.20;1.40;;;;;;;5.93;59.53;100575.53;4996414;28;20075;-81
2022/01/03 02:33:13;;;;;;;6.43;0.77;;;;;;;6.06;59.07;100571.75;5009518;28;20056;-81
2022/01/03 02:35:41;;;;;;;12.77;1.27;;;;;;;5.44;60.66;100584.50;4992550;28;20034;-80
2022/01/03 02:38:10;;;;;;;16.77;1.48;;;;;;;5.67;60.17;100571.00;4978322;28;20034;-80
2022/01/03 02:40:36;;;;;;;13.13;0.63;;;;;;;5.91;59.78;100581.66;4991805;28;20029;-81
2022/01/03 02:43:02;;;;;;;13.95;1.55;;;;;;;5.67;60.00;100578.78;5002056;28;20042;-82
2022/01/03 02:45:28;;;;;;;10.15;1.95;;;;;;;5.19;61.02;100572.13;4974550;28;20057;-81
2022/01/03 02:48:00;;;;;;;14.38;1.20;;;;;;;6.14;58.89;100581.06;4994925;28;20316;-80
2022/01/03 02:50:29;;;;;;;16.20;1.90;;;;;;;6.13;58.60;100582.81;4997021;28;20057;-79
2022/01/03 02:52:55;;;;;;;8.98;1.02;;;;;;;6.02;59.04;100572.72;4996346;28;20045;-79
2022/01/03 02:55:23;;;;;;;13.82;1.98;;;;;;;5.63;60.31;100570.19;4999434;28;20037;-79
2022/01/03 02:57:52;;;;;;;13.43;0.90;;;;;;;6.39;57.95;100569.16;4977125;28;20046;-80
2022/01/03 03:00:26;;;;;;;13.25;1.13;;;;;;;6.01;58.95;100578.78;4993089;28;20034;-79
2022/01/03 03:02:51;;;;;;;20.95;2.58;;;;;;;5.58;60.33;100574.66;4956805;28;20046;-79
2022/01/03 03:05:19;;;;;;;25.70;3.25;;;;;;;5.94;59.26;100571.19;4991495;28;20138;-81
2022/01/03 03:07:46;;;;;;;12.55;1.92;;;;;;;5.90;59.25;100564.38;4997841;28;20260;-80
2022/01/03 03:10:17;;;;;;;15.82;1.33;;;;;;;5.90;59.13;100575.59;4980347;28;20291;-79
2022/01/03 03:12:43;;;;;;;17.30;0.70;;;;;;;6.34;57.92;100581.41;5009732;28;20042;-80
2022/01/03 03:15:10;;;;;;;14.52;1.02;;;;;;;5.56;60.09;100576.44;4981465;28;20038;-80
2022/01/03 03:17:39;;;;;;;11.00;0.90;;;;;;;6.42;57.40;100566.50;4985242;28;20515;-80
2022/01/03 03:20:11;;;;;;;13.20;1.00;;;;;;;5.97;58.43;100577.16;4978091;28;20121;-80
2022/01/03 03:22:37;;;;;;;21.08;2.80;;;;;;;5.71;59.19;100577.81;4968045;28;20291;-81
2022/01/03 03:25:08;;;;;;;8.43;0.93;;;;;;;6.26;57.53;100576.41;5004318;28;20038;-78
2022/01/03 03:27:42;;;;;;;18.98;1.60;;;;;;;6.36;57.77;100581.38;4994914;28;20068;-80
2022/01/03 03:30:21;;;;;;;3.03;0.55;;;;;;;5.99;58.34;100575.34;4987168;28;20040;-80
2022/01/03 03:32:48;;;;;;;13.77;1.40;;;;;;;5.96;57.96;100575.44;4987303;28;20458;-82
2022/01/03 03:35:14;;;;;;;12.38;1.08;;;;;;;6.19;57.72;100561.88;4993317;28;20038;-81
2022/01/03 03:37:40;;;;;;;14.88;2.53;;;;;;;5.69;59.26;100563.19;4978854;28;20042;-81
2022/01/03 03:40:07;;;;;;;12.13;1.27;;;;;;;5.72;58.81;100568.28;4993786;28;20116;-80
2022/01/03 03:42:33;;;;;;;18.55;1.35;;;;;;;6.13;58.04;100576.75;4982621;28;20115;-80
2022/01/03 03:44:59;;;;;;;18.88;1.90;;;;;;;6.32;57.42;100561.59;4993443;28;20441;-79
2022/01/03 03:47:25;;;;;;;16.50;1.38;;;;;;;6.07;58.07;100578.63;4994516;28;20182;-80
2022/01/03 03:49:51;;;;;;;15.75;1.65;;;;;;;6.41;57.50;100576.91;4981308;28;20382;-82
2022/01/03 03:52:17;;;;;;;11.90;1.48;;;;;;;6.11;58.04;100558.66;4950661;28;20037;-81
2022/01/03 03:54:42;;;;;;;14.68;1.98;;;;;;;5.99;58.33;100577.94;4999005;28;20032;-81
2022/01/03 03:57:08;;;;;;;10.93;1.77;;;;;;;6.33;57.25;100569.34;4966994;28;20105;-81
2022/01/03 03:59:35;;;;;;;11.63;1.42;;;;;;;5.60;59.08;100561.66;4993292;28;20037;-81
2022/01/03 04:02:02;;;;;;;14.60;1.00;;;;;;;5.94;58.46;100566.84;4984412;28;20059;-80
2022/01/03 04:04:27;;;;;;;13.60;1.00;;;;;;;5.50;59.92;100567.94;5009674;28;20057;-82
2022/01/03 04:06:53;;;;;;;21.25;2.22;;;;;;;6.17;58.16;100570.59;4951120;28;20502;-81
2022/01/03 04:09:19;;;;;;;9.45;0.95;;;;;;;6.01;58.66;100568.38;4995630;28;20040;-81
2022/01/03 04:11:46;;;;;;;16.23;1.73;;;;;;;5.83;58.79;100564.53;4996609;28;20037;-81
2022/01/03 04:14:11;;;;;;;16.42;2.03;;;;;;;6.14;57.96;100560.31;4992623;28;20120;-81
2022/01/03 04:16:39;;;;;;;15.57;2.38;;;;;;;6.25;57.77;100571.25;4995514;28;20049;-81
2022/01/03 04:19:05;;;;;;;11.45;1.27;;;;;;;5.82;58.70;100559.41;4976503;28;20073;-81
2022/01/03 04:21:31;;;;;;;8.85;1.10;;;;;;;6.24;57.73;100564.38;4979837;28;20101;-81
2022/01/03 04:23:57;;;;;;;13.40;1.65;;;;;;;6.15;57.63;100564.59;4987118;28;20038;-81
2022/01/03 04:26:23;;;;;;;10.93;1.52;;;;;;;6.31;56.96;100550.34;4993065;28;20449;-82
2022/01/03 04:28:49;;;;;;;15.43;1.60;;;;;;;6.22;57.70;100558.38;4990012;28;20045;-82
2022/01/03 04:31:15;;;;;;;23.40;2.97;;;;;;;5.99;57.37;100558.94;4993070;28;20457;-80
2022/01/03 04:33:41;;;;;;;12.75;1.95;;;;;;;5.76;58.15;100555.19;4988026;28;20529;-80
2022/01/03 04:36:09;;;;;;;20.58;2.28;;;;;;;6.40;56.61;100570.88;4975247;28;20092;-81
2022/01/03 04:38:35;;;;;;;13.60;1.73;;;;;;;5.96;57.88;100559.88;4941477;28;20057;-79
2022/01/03 04:41:01;;;;;;;21.83;1.88;;;;;;;5.71;58.70;100561.41;4992072;28;20048;-80
2022/01/03 04:43:27;;;;;;;21.75;2.25;;;;;;;6.11;57.00;100568.19;4992574;28;20072;-80
2022/01/03 04:45:53;;;;;;;12.50;2.47;;;;;;;5.61;58.44;100569.41;4972756;28;20063;-81
2022/01/03 04:48:19;;;;;;;18.35;1.58;;;;;;;5.34;58.93;100562.28;4992129;28;20084;-80
2022/01/03 04:50:46;;;;;;;19.90;2.60;;;;;;;5.57;58.52;100551.34;4983354;28;20038;-80
2022/01/03 04:53:11;;;;;;;15.25;1.67;;;;;;;5.94;57.91;100555.63;4965424;28;20085;-80
2022/01/03 04:55:37;;;;;;;23.52;1.55;;;;;;;5.79;57.98;100556.88;4974674;28;20124;-80
2022/01/03 04:58:03;;;;;;;23.40;2.47;;;;;;;5.85;58.01;100554.13;4990584;28;20041;-80
2022/01/03 05:00:28;;;;;;;18.42;1.20;;;;;;;6.25;56.37;100558.28;4995960;28;20429;-81
2022/01/03 05:02:54;;;;;;;12.13;1.63;;;;;;;6.00;57.46;100555.47;4989689;28;22316;-81
2022/01/03 05:05:21;;;;;;;12.63;1.67;;;;;;;5.89;57.88;100563.53;4996387;28;20105;-80
2022/01/03 05:07:48;;;;;;;21.15;1.85;;;;;;;5.96;57.51;100564.22;4977522;28;20047;-81
2022/01/03 05:10:14;;;;;;;16.42;1.85;;;;;;;6.07;56.99;100563.06;4976457;28;20027;-81
2022/01/03 05:12:40;;;;;;;22.00;2.67;;;;;;;6.07;57.18;100563.06;4983682;28;20058;-81
2022/01/03 05:15:06;;;;;;;22.63;2.25;;;;;;;5.96;57.58;100559.88;4993463;28;20332;-81
2022/01/03 05:17:32;;;;;;;15.77;2.40;;;;;;;5.90;57.69;100554.84;4991661;28;20062;-81
2022/01/03 05:19:59;;;;;;;18.85;2.65;;;;;;;6.34;56.53;100555.44;4994018;28;20030;-82
2022/01/03 05:22:24;;;;;;;8.82;2.40;;;;;;;5.87;57.47;100562.72;4992732;28;20057;-80
2022/01/03 05:24:50;;;;;;;17.08;1.70;;;;;;;5.86;57.96;100548.06;4991950;28;21196;-81
2022/01/03 05:27:16;;;;;;;15.43;1.92;;;;;;;5.95;57.48;100552.13;4992155;28;20050;-81
2022/01/03 05:29:41;;;;;;;29.05;3.80;;;;;;;5.60;58.49;100570.28;4996385;28;20041;-80
2022/01/03 05:32:07;;;;;;;11.13;1.80;;;;;;;5.59;58.50;100555.63;4952660;28;20042;-80
2022/01/03 05:34:33;;;;;;;18.83;1.85;;;;;;;5.53;59.00;100557.53;4997024;28;20030;-81
2022/01/03 05:36:59;;;;;;;14.68;1.88;;;;;;;5.64;58.33;100550.34;5000361;28;20044;-80
2022/01/03 05:39:25;;;;;;;14.57;1.42;;;;;;;5.95;57.45;100565.97;4995772;28;20037;-81
2022/01/03 05:41:51;;;;;;;12.02;1.13;;;;;;;5.70;58.26;100563.13;4993295;28;20501;-81
2022/01/03 05:44:18;;;;;;;15.45;2.33;;;;;;;5.45;58.92;100560.28;4994770;28;20511;-81
2022/01/03 05:46:43;;;;;;;17.35;2.50;;;;;;;5.37;58.86;100560.47;4995133;28;20037;-82
2022/01/03 05:49:11;;;;;;;19.63;2.72;;;;;;;5.58;58.31;100561.69;4994850;28;20059;-80
2022/01/03 05:51:38;;;;;;;12.48;1.98;;;;;;;5.76;57.96;100562.13;4994263;28;20033;-82
2022/01/03 05:54:04;;;;;;;15.07;2.03;;;;;;;5.84;57.33;100562.81;4979130;28;20041;-80
2022/01/03 05:56:30;;;;;;;17.95;1.92;;;;;;;5.60;58.08;100546.09;4996374;28;20056;-80
2022/01/03 05:58:56;;;;;;;21.30;2.53;;;;;;;5.44;58.90;100567.22;4982911;28;20050;-81
2022/01/03 06:01:24;;;;;;;13.60;2.92;;;;;;;5.88;57.92;100535.88;4999404;28;20039;-80
2022/01/03 06:03:58;;;;;;;17.25;1.70;;;;;;;5.33;59.30;100560.59;4995926;28;20116;-80
2022/01/03 06:06:53;;;;;;;18.20;1.98;;;;;;;5.25;59.30;100546.03;5004498;28;20668;-81
2022/01/03 06:09:22;;;;;;;26.52;2.70;;;;;;;5.17;59.44;100542.78;4995052;28;20069;-81
2022/01/03 06:11:51;;;;;;;16.27;1.40;;;;;;;5.42;58.81;100545.66;4988555;28;20122;-81
2022/01/03 06:14:18;;;;;;;17.40;2.05;;;;;;;5.41;59.22;100558.63;4991776;28;20060;-81
2022/01/03 06:16:46;;;;;;;24.52;1.77;;;;;;;5.12;59.63;100554.97;4976107;28;20054;-79
2022/01/03 06:19:12;;;;;;;15.10;2.42;;;;;;;5.47;58.76;100545.53;4990367;28;20448;-81
2022/01/03 06:21:41;;;;;;;9.98;1.83;;;;;;;5.95;57.24;100553.00;5012934;28;20040;-80
2022/01/03 06:24:10;;;;;;;12.05;1.42;;;;;;;6.11;56.50;100535.28;4992728;28;20038;-81
2022/01/03 06:26:38;;;;;;;15.77;1.45;;;;;;;5.72;57.98;100539.75;4979286;28;20041;-80
2022/01/03 06:29:12;;;;;;;18.83;2.50;;;;;;;5.22;59.01;100551.31;4981334;28;20068;-82
2022/01/03 06:31:38;;;;;;;16.80;1.67;;;;;;;5.63;57.89;100557.25;4981876;28;20038;-79
2022/01/03 06:34:04;;;;;;;20.30;2.35;;;;;;;5.31;58.95;100539.03;4999387;28;20209;-79
2022/01/03 06:36:31;;;;;;;16.95;2.55;;;;;;;5.87;57.17;100544.56;5001498;28;20091;-81
2022/01/03 06:39:00;;;;;;;11.63;1.52;;;;;;;6.39;56.04;100542.34;4993558;28;20092;-81
2022/01/03 06:41:26;;;;;;;42.70;3.28;;;;;;;5.71;57.60;100553.63;4976881;28;20025;-81
2022/01/03 06:43:53;;;;;;;18.27;2.35;;;;;;;6.07;57.05;100557.88;4979123;28;20108;-81
2022/01/03 06:46:19;;;;;;;18.50;2.30;;;;;;;5.48;58.46;100542.09;4999419;28;20068;-80
2022/01/03 06:48:46;;;;;;;15.55;1.48;;;;;;;5.77;57.62;100548.25;4993947;28;20069;-80
2022/01/03 06:51:16;;;;;;;19.83;2.28;;;;;;;5.74;57.63;100543.16;4990096;28;20042;-80
2022/01/03 06:53:43;;;;;;;14.90;1.37;;;;;;;4.84;60.55;100521.88;4994680;28;20684;-81
2022/01/03 06:56:10;;;;;;;13.95;1.85;;;;;;;5.80;57.60;100540.44;4994670;28;20037;-81
2022/01/03 06:58:38;;;;;;;15.30;1.77;;;;;;;5.59;58.02;100537.50;4958572;28;20050;-83
2022/01/03 07:01:05;;;;;;;20.40;3.63;;;;;;;5.08;59.72;100522.28;4982758;28;20473;-83
2022/01/03 07:03:31;;;;;;;18.70;1.95;;;;;;;5.10;59.08;100541.22;4974052;28;20109;-82
2022/01/03 07:05:57;;;;;;;19.77;2.15;;;;;;;5.86;57.37;100541.13;4993539;28;20077;-82
2022/01/03 07:08:22;;;;;;;14.77;2.10;;;;;;;6.00;56.66;100540.75;4995186;28;20105;-82
2022/01/03 07:10:49;;;;;;;19.05;2.45;;;;;;;5.30;58.55;100542.50;4994939;28;20029;-79
2022/01/03 07:13:15;;;;;;;16.95;1.70;;;;;;;5.28;59.03;100549.44;4979456;28;20042;-80
2022/01/03 07:21:11;;;;;;;21.00;2.45;;;;;;;5.79;57.48;100551.69;5009051;28;20046;-79
2022/01/03 07:23:39;;;;;;;12.20;1.40;;;;;;;5.82;57.42;100547.28;4977656;28;20064;-79
2022/01/03 07:26:04;;;;;;;22.38;2.17;;;;;;;5.70;57.64;100551.91;4996764;28;20041;-80
2022/01/03 07:28:30;;;;;;;14.45;1.02;;;;;;;5.49;58.61;100554.13;4959524;28;20050;-79
2022/01/03 07:30:55;;;;;;;24.60;2.85;;;;;;;5.77;57.50;100549.16;4994187;28;20038;-80
2022/01/03 07:33:21;;;;;;;14.50;1.50;;;;;;;5.63;57.56;100535.66;4981642;28;20077;-80
2022/01/03 07:35:46;;;;;;;16.75;2.38;;;;;;;6.21;55.86;100544.50;4978080;28;20073;-80
2022/01/03 07:38:12;;;;;;;14.98;1.92;;;;;;;5.82;57.23;100552.47;4973347;28;20082;-79
2022/01/03 07:40:38;;;;;;;25.88;2.50;;;;;;;6.43;55.42;100539.63;4982511;28;20132;-80
2022/01/03 07:43:03;;;;;;;22.75;2.25;;;;;;;6.14;56.11;100536.94;4976737;28;20080;-80
2022/01/03 07:45:29;;;;;;;16.00;1.88;;;;;;;5.91;56.97;100545.34;4991152;28;20073;-80
2022/01/03 07:47:54;;;;;;;16.58;1.90;;;;;;;6.07;56.73;100557.03;4971994;28;20417;-80
2022/01/03 07:50:20;;;;;;;11.88;1.83;;;;;;;6.00;56.93;100550.28;4978143;28;20034;-80
2022/01/03 07:52:46;;;;;;;21.05;1.77;;;;;;;5.90;57.25;100554.84;4990856;28;20042;-80
2022/01/03 07:55:13;;;;;;;7.85;1.90;;;;;;;5.85;56.78;100561.91;4979025;28;20402;-80
2022/01/03 07:57:40;;;;;;;18.15;2.25;;;;;;;6.01;56.72;100552.81;4986545;28;20060;-80
2022/01/03 08:00:08;;;;;;;14.77;1.88;;;;;;;6.24;55.98;100546.19;4972030;28;20068;-81
2022/01/03 08:02:40;;;;;;;17.40;2.17;;;;;;;5.91;56.61;100546.19;5004232;28;20033;-80
2022/01/03 08:05:08;;;;;;;18.35;2.08;;;;;;;5.78;57.02;100537.88;4994649;28;20042;-80
2022/01/03 08:07:33;;;;;;;25.63;2.35;;;;;;;6.01;56.24;100551.97;5006653;28;20041;-80
2022/01/03 08:09:59;;;;;;;24.92;3.38;;;;;;;5.97;56.51;100553.81;4985155;28;20165;-80
2022/01/03 08:12:24;;;;;;;17.40;2.03;;;;;;;6.42;55.46;100558.69;4978769;28;20021;-79
2022/01/03 08:14:50;;;;;;;10.40;1.77;;;;;;;5.85;56.43;100554.13;4993082;28;20452;-80
2022/01/03 08:17:15;;;;;;;21.40;1.92;;;;;;;5.96;56.30;100565.06;4974774;28;20622;-80
2022/01/03 08:19:41;;;;;;;16.33;1.98;;;;;;;6.39;55.46;100553.56;4992499;28;20030;-80
2022/01/03 08:22:06;;;;;;;12.35;1.92;;;;;;;5.90;56.50;100565.22;4975601;28;20042;-80
2022/01/03 08:24:32;;;;;;;23.02;1.73;;;;;;;6.73;53.96;100560.44;4974562;28;20505;-80
2022/01/03 08:26:57;;;;;;;21.77;1.95;;;;;;;6.65;54.35;100559.78;4991876;28;20097;-80
2022/01/03 08:30:10;;;;;;;15.30;2.38;;;;;;;6.45;54.70;100569.00;5008156;28;20064;-80
2022/01/03 08:33:21;;;;;;;17.98;2.63;;;;;;;6.31;55.36;100572.84;4950401;28;20073;-79
2022/01/03 08:36:03;;;;;;;15.68;1.63;;;;;;;5.81;56.64;100575.84;4991665;28;20030;-81
2022/01/03 08:38:37;;;;;;;;;;;;;;;6.56;54.96;100562.66;4976477;28;20061;-79
2022/01/03 08:41:02;;;;;;;14.38;2.17;;;;;;;6.63;54.86;100571.97;4985515;28;20040;-82
2022/01/03 08:43:28;;;;;;;15.90;2.03;;;;;;;6.58;54.59;100569.50;4987961;28;20137;-79
2022/01/03 08:45:54;;;;;;;21.02;3.30;;;;;;;6.50;55.29;100567.09;4991235;28;20433;-79
2022/01/03 08:48:20;;;;;;;13.38;2.05;;;;;;;6.07;56.21;100563.06;4983865;28;20050;-79
2022/01/03 08:50:46;;;;;;;16.10;1.88;;;;;;;6.02;56.62;100570.13;4986741;28;20129;-79
2022/01/03 08:53:11;;;;;;;25.13;2.28;;;;;;;6.28;55.76;100571.19;5023343;23;20053;-73
2022/01/03 08:55:37;;;;;;;23.90;3.67;;;;;;;6.60;54.83;100566.88;5020847;28;20083;-73
2022/01/03 08:58:02;;;;;;;22.25;2.50;;;;;;;5.99;56.59;100567.56;5037899;28;20280;-73
2022/01/03 09:00:28;;;;;;;15.60;2.85;;;;;;;5.85;56.81;100561.91;5048738;28;20039;-73
2022/01/03 09:02:54;;;;;;;18.95;2.85;;;;;;;6.05;56.58;100575.22;5035574;28;20046;-73
2022/01/03 09:05:19;;;;;;;37.60;2.97;;;;;;;6.35;55.97;100571.88;5036828;28;20039;-74
2022/01/03 09:07:45;;;;;;;14.65;1.35;;;;;;;6.26;55.61;100568.63;5042117;28;20044;-72
2022/01/03 09:10:14;;;;;;;26.27;1.35;;;;;;;6.50;55.35;100567.09;5035841;28;20025;-75
2022/01/03 09:12:40;;;;;;;14.60;2.15;;;;;;;6.19;56.06;100555.84;5021757;28;20033;-72
2022/01/03 09:15:06;;;;;;;26.15;2.83;;;;;;;5.90;56.54;100564.38;5040113;28;20044;-73
2022/01/03 09:17:33;;;;;;;14.68;1.75;;;;;;;6.17;55.69;100562.81;5038294;28;20037;-73
2022/01/03 09:19:59;;;;;;;13.07;1.70;;;;;;;6.48;55.38;100581.03;5051394;28;20051;-74
2022/01/03 09:22:31;;;;;;;14.30;2.25;;;;;;;6.14;56.27;100557.72;5048591;28;20041;-72
2022/01/03 09:30:12;;;;;;;12.73;2.05;;;;;;;6.27;55.61;100559.94;5042109;28;20068;-73
2022/01/03 09:32:39;;;;;;;19.30;3.05;;;;;;;6.18;56.11;100554.16;5036895;28;20051;-73
2022/01/03 09:35:07;;;;;;;15.93;1.92;;;;;;;6.20;55.75;100554.97;5054828;28;20528;-73
2022/01/03 09:37:34;;;;;;;15.13;2.33;;;;;;;6.07;56.09;100563.06;5041673;28;20102;-70
2022/01/03 09:40:01;;;;;;;23.05;1.63;;;;;;;6.02;56.32;100571.88;5036674;28;20037;-73
2022/01/03 09:42:31;;;;;;;10.48;1.70;;;;;;;5.94;56.48;100561.66;5041267;28;20036;-73
2022/01/03 09:45:05;;;;;;;17.13;2.63;;;;;;;6.28;55.52;100563.41;5051912;28;20080;-73
2022/01/03 09:47:32;;;;;;;23.83;2.55;;;;;;;6.00;56.06;100561.50;5040298;28;20414;-74
2022/01/03 09:50:01;;;;;;;16.08;1.48;;;;;;;6.09;55.70;100563.88;5053575;28;20502;-72
2022/01/03 09:52:33;;;;;;;17.75;1.83;;;;;;;6.07;55.97;100573.44;5032403;28;20041;-73
2022/01/03 09:55:00;;;;;;;13.70;2.42;;;;;;;6.45;54.85;100568.16;5051158;28;20688;-73
2022/01/03 09:57:28;;;;;;;19.20;2.67;;;;;;;6.46;55.16;100573.31;5022916;28;20060;-74
2022/01/03 09:59:54;;;;;;;16.05;2.13;;;;;;;6.55;54.85;100579.13;5050274;28;20040;-71
2022/01/03 10:02:21;;;;;;;20.83;2.33;;;;;;;6.62;54.39;100570.25;5049825;28;20044;-74
2022/01/03 10:04:48;;;;;;;15.90;2.10;;;;;;;6.78;54.03;100581.94;5037044;28;20040;-73
2022/01/03 10:07:17;;;;;;;28.60;2.92;;;;;;;6.80;54.12;100563.72;5040316;28;20119;-72
2022/01/03 10:09:43;;;;;;;14.45;1.42;;;;;;;6.58;54.64;100563.47;5050607;28;20025;-72
2022/01/03 10:12:11;;;;;;;20.63;2.08;;;;;;;6.32;55.26;100562.44;5033819;28;20051;-72
2022/01/03 10:14:36;;;;;;;23.27;2.72;;;;;;;6.57;54.32;100570.38;5041162;28;20063;-73
2022/01/03 10:17:04;;;;;;;18.23;2.30;;;;;;;6.16;55.23;100561.97;5037243;28;20132;-74
2022/01/03 10:19:29;;;;;;;13.85;2.00;;;;;;;6.66;53.68;100566.69;5052846;28;20032;-73
2022/01/03 10:21:55;;;;;;;23.70;1.92;;;;;;;6.34;54.33;100555.44;5022647;28;20033;-72
2022/01/03 10:24:34;;;;;;;16.80;1.92;;;;;;;6.59;53.49;100562.56;5034889;28;20020;-73
2022/01/03 10:27:03;;;;;;;19.60;2.83;;;;;;;7.03;52.57;100548.28;5047615;28;20142;-73
2022/01/03 10:29:33;;;;;;;16.98;1.88;;;;;;;6.94;52.46;100558.09;5039955;28;20016;-73
2022/01/03 10:32:04;;;;;;;21.40;1.98;;;;;;;6.75;53.47;100560.38;5034792;28;20033;-73
2022/01/03 10:34:32;;;;;;;23.60;2.83;;;;;;;6.48;54.00;100555.94;5051157;28;20383;-73
2022/01/03 10:36:58;;;;;;;21.55;1.70;;;;;;;6.67;53.75;100545.03;5043116;28;20033;-73
2022/01/03 10:39:28;;;;;;;11.90;2.42;;;;;;;6.96;52.68;100553.72;5039708;28;20032;-73
2022/01/03 10:42:12;;;;;;;16.60;1.77;;;;;;;7.03;52.72;100543.06;5036196;28;20076;-73
2022/01/03 10:44:45;;;;;;;22.65;1.48;;;;;;;6.63;54.12;100538.22;5018290;28;20028;-72
2022/01/03 10:47:15;;;;;;;18.70;1.77;;;;;;;6.84;53.73;100535.00;5028672;28;20045;-73
2022/01/03 10:49:43;;;;;;;19.33;2.25;;;;;;;6.56;53.97;100534.09;5028893;28;20036;-73
2022/01/03 10:52:17;;;;;;;14.32;1.83;;;;;;;7.05;52.55;100532.63;5033749;28;20063;-73
2022/01/03 10:54:46;;;;;;;16.40;1.95;;;;;;;6.40;54.23;100534.53;5014491;28;20059;-74
2022/01/03 10:57:14;;;;;;;24.75;1.42;;;;;;;6.53;53.98;100529.84;5009549;28;20495;-73
2022/01/03 10:59:42;;;;;;;17.27;1.63;;;;;;;6.96;52.20;100527.72;5016956;28;20091;-74
2022/01/03 11:02:12;;;;;;;14.07;2.80;;;;;;;7.22;51.69;100529.50;5005287;28;20053;-73
2022/01/03 11:04:49;;;;;;;14.18;1.10;;;;;;;6.93;52.35;100520.00;5009523;28;20127;-73
2022/01/03 11:13:01;;;;;;;19.58;3.83;;;;;;;6.90;52.65;100515.75;4997908;28;20321;-74
2022/01/03 11:15:27;;;;;;;15.27;2.30;;;;;;;7.13;52.24;100528.03;5017729;28;20035;-74
2022/01/03 11:18:06;;;;;;;16.48;2.17;;;;;;;7.07;51.92;100510.91;5016706;28;20045;-74
2022/01/03 11:20:34;;;;;;;12.15;2.60;;;;;;;6.41;53.48;100510.25;5018492;28;20125;-73
2022/01/03 11:22:59;;;;;;;18.33;1.38;;;;;;;6.55;53.33;100494.31;4998083;28;20538;-73
2022/01/03 11:25:34;;;;;;;14.38;1.35;;;;;;;7.09;52.19;100497.88;5005727;28;20136;-74
2022/01/03 11:28:01;;;;;;;14.40;1.73;;;;;;;6.93;52.64;100501.81;5007437;28;20458;-73
2022/01/03 11:30:30;;;;;;;17.80;2.67;;;;;;;6.85;52.42;100484.72;5015645;28;20029;-74
2022/01/03 11:33:00;;;;;;;16.42;1.50;;;;;;;7.16;51.69;100495.94;5021204;28;20036;-74
2022/01/03 11:35:28;;;;;;;20.83;2.30;;;;;;;6.77;53.13;100499.69;4992292;28;20103;-73
2022/01/03 11:37:58;;;;;;;15.00;1.77;;;;;;;6.99;52.51;100488.66;5019304;28;20496;-74
2022/01/03 11:40:27;;;;;;;21.90;2.25;;;;;;;7.22;51.83;100487.91;5004974;28;20032;-74
2022/01/03 11:42:53;;;;;;;10.57;1.65;;;;;;;7.62;51.19;100486.63;4982878;28;20037;-73
2022/01/03 11:45:18;;;;;;;17.73;2.65;;;;;;;7.05;52.11;100491.06;4992739;28;20025;-74
2022/01/03 11:47:44;;;;;;;13.05;1.88;;;;;;;6.66;52.65;100478.38;5004652;28;20037;-74
2022/01/03 11:50:10;;;;;;;16.45;2.25;;;;;;;6.55;52.96;100483.03;5016805;28;20108;-74
2022/01/03 11:52:41;;;;;;;13.73;2.13;;;;;;;7.03;52.47;100477.25;5026818;28;20083;-74
2022/01/03 11:55:10;;;;;;;15.60;2.85;;;;;;;7.29;51.98;100464.28;5012407;28;20514;-73